createdAt,value
2018-11-04T00:00:14.527Z,31.30
2018-11-04T00:01:14.448Z,34.70
2018-11-04T00:02:14.388Z,33.20
2018-11-04T00:03:14.343Z,33.70
2018-11-04T00:04:14.260Z,31.60
2018-11-04T00:05:14.219Z,33.50
2018-11-04T00:06:14.146Z,32.90
2018-11-04T00:07:14.070Z,33.30
2018-11-04T00:08:14.012Z,29.80
2018-11-04T00:09:13.944Z,33.60
2018-11-04T00:10:13.888Z,34.80
2018-11-04T00:11:13.837Z,32.60
2018-11-04T00:12:13.752Z,31.70
2018-11-04T00:13:13.791Z,31.40
2018-11-04T00:14:13.636Z,34.00
2018-11-04T00:15:13.567Z,32.70
2018-11-04T00:16:13.502Z,31.90
2018-11-04T00:17:13.430Z,32.20
2018-11-04T00:18:13.374Z,33.00
2018-11-04T00:19:13.326Z,32.70
2018-11-04T00:20:13.273Z,31.60
2018-11-04T00:21:13.176Z,32.40
2018-11-04T00:22:13.135Z,33.80
2018-11-04T00:23:13.069Z,31.40
2018-11-04T00:24:13.068Z,31.20
2018-11-04T00:25:12.922Z,32.40
2018-11-04T00:26:12.879Z,33.20
2018-11-04T00:27:12.858Z,32.80
2018-11-04T00:28:12.777Z,33.10
2018-11-04T00:29:12.676Z,36.60
2018-11-04T00:30:12.631Z,34.40
2018-11-04T00:31:12.558Z,31.90
2018-11-04T00:32:12.494Z,33.30
2018-11-04T00:33:12.413Z,34.50
2018-11-04T00:34:12.360Z,34.00
2018-11-04T00:35:12.319Z,34.30
2018-11-04T00:36:12.227Z,33.60
2018-11-04T00:37:12.161Z,34.60
2018-11-04T00:38:12.097Z,32.80
2018-11-04T00:39:12.051Z,33.70
2018-11-04T00:40:11.976Z,33.20
2018-11-04T00:41:11.909Z,34.10
2018-11-04T00:42:11.846Z,34.20
2018-11-04T00:43:11.797Z,35.20
2018-11-04T00:44:11.720Z,32.60
2018-11-04T00:45:11.749Z,32.00
2018-11-04T00:46:11.590Z,34.80
2018-11-04T00:47:11.550Z,35.00
2018-11-04T00:48:11.483Z,34.90
2018-11-04T00:49:11.407Z,32.30
2018-11-04T00:50:11.348Z,33.60
2018-11-04T00:51:11.297Z,34.50
2018-11-04T00:52:11.249Z,34.00
2018-11-04T00:53:11.149Z,36.00
2018-11-04T00:54:11.079Z,34.60
2018-11-04T00:55:11.063Z,33.70
2018-11-04T00:56:10.968Z,33.60
2018-11-04T00:57:10.891Z,35.00
2018-11-04T00:58:10.849Z,34.90
2018-11-04T00:59:10.769Z,34.30
2018-11-04T01:00:10.704Z,34.90
2018-11-04T01:01:10.650Z,35.90
2018-11-04T01:02:10.574Z,36.10
2018-11-04T01:03:10.528Z,35.30
2018-11-04T01:04:10.452Z,35.90
2018-11-04T01:05:10.409Z,35.20
2018-11-04T01:06:10.337Z,33.80
2018-11-04T01:07:10.277Z,33.60
2018-11-04T01:08:10.215Z,36.40
2018-11-04T01:09:10.222Z,36.20
2018-11-04T01:10:10.065Z,36.70
2018-11-04T01:11:10.016Z,33.30
2018-11-04T01:12:09.969Z,36.60
2018-11-04T01:13:09.882Z,34.50
2018-11-04T01:14:09.822Z,36.30
2018-11-04T01:15:09.751Z,35.20
2018-11-04T01:16:09.688Z,35.70
2018-11-04T01:17:09.624Z,36.50
2018-11-04T01:18:09.567Z,33.80
2018-11-04T01:19:09.505Z,36.50
2018-11-04T01:20:09.447Z,35.60
2018-11-04T01:21:09.481Z,38.90
2018-11-04T01:22:09.309Z,33.30
2018-11-04T01:23:09.239Z,34.50
2018-11-04T01:24:09.195Z,35.00
2018-11-04T01:25:09.113Z,35.10
2018-11-04T01:26:09.051Z,38.40
2018-11-04T01:27:08.992Z,36.30
2018-11-04T01:28:08.926Z,33.50
2018-11-04T01:29:08.881Z,35.30
2018-11-04T01:30:08.825Z,35.20
2018-11-04T01:31:08.741Z,35.30
2018-11-04T01:32:08.684Z,35.50
2018-11-04T01:33:08.613Z,33.90
2018-11-04T01:34:08.563Z,34.10
2018-11-04T01:35:08.497Z,33.70
2018-11-04T01:36:08.470Z,35.60
2018-11-04T01:37:08.371Z,36.70
2018-11-04T01:38:08.293Z,36.10
2018-11-04T01:39:08.233Z,36.30
2018-11-04T01:40:08.166Z,36.50
2018-11-04T01:41:08.099Z,35.90
2018-11-04T01:42:08.043Z,36.80
2018-11-04T01:43:07.988Z,36.80
2018-11-04T01:44:07.913Z,38.70
2018-11-04T01:45:07.848Z,35.50
2018-11-04T01:46:07.785Z,38.60
2018-11-04T01:47:07.732Z,37.80
2018-11-04T01:48:07.672Z,37.00
2018-11-04T01:49:07.601Z,38.00
2018-11-04T01:50:07.530Z,38.90
2018-11-04T01:51:07.485Z,37.60
2018-11-04T01:52:07.408Z,40.30
2018-11-04T01:53:07.339Z,37.40
2018-11-04T01:54:07.271Z,37.20
2018-11-04T01:55:07.212Z,36.20
2018-11-04T01:56:07.151Z,36.00
2018-11-04T01:57:07.084Z,34.70
2018-11-04T01:58:07.025Z,37.30
2018-11-04T01:59:06.961Z,38.10
2018-11-04T02:00:06.894Z,38.80
2018-11-04T02:01:06.830Z,37.70
2018-11-04T02:02:06.771Z,37.50
2018-11-04T02:03:06.711Z,37.80
2018-11-04T02:04:06.648Z,37.80
2018-11-04T02:05:06.584Z,40.30
2018-11-04T02:06:06.559Z,39.50
2018-11-04T02:07:06.454Z,36.90
2018-11-04T02:08:06.382Z,34.40
2018-11-04T02:09:06.321Z,35.20
2018-11-04T02:10:06.255Z,37.10
2018-11-04T02:11:06.198Z,37.10
2018-11-04T02:12:06.133Z,34.60
2018-11-04T02:13:06.061Z,34.60
2018-11-04T02:14:06.012Z,34.80
2018-11-04T02:15:05.946Z,35.80
2018-11-04T02:16:05.874Z,36.60
2018-11-04T02:17:05.828Z,33.90
2018-11-04T02:18:05.769Z,34.70
2018-11-04T02:19:05.682Z,34.40
2018-11-04T02:20:05.629Z,33.20
2018-11-04T02:21:05.576Z,41.10
2018-11-04T02:22:05.491Z,36.10
2018-11-04T02:23:05.436Z,36.30
2018-11-04T02:24:05.369Z,34.10
2018-11-04T02:25:05.311Z,33.40
2018-11-04T02:26:05.237Z,37.30
2018-11-04T02:27:05.174Z,33.10
2018-11-04T02:28:05.137Z,36.80
2018-11-04T02:29:05.051Z,33.20
2018-11-04T02:30:04.986Z,33.60
2018-11-04T02:31:04.921Z,33.80
2018-11-04T02:32:04.855Z,38.70
2018-11-04T02:33:04.795Z,34.20
2018-11-04T02:34:04.754Z,36.10
2018-11-04T02:35:04.664Z,48.50
2018-11-04T02:36:04.604Z,36.50
2018-11-04T02:37:04.546Z,34.90
2018-11-04T02:38:04.505Z,37.00
2018-11-04T02:39:04.412Z,36.80
2018-11-04T02:40:04.347Z,36.60
2018-11-04T02:41:04.308Z,37.50
2018-11-04T02:42:04.219Z,35.10
2018-11-04T02:43:04.157Z,36.50
2018-11-04T02:44:04.095Z,34.90
2018-11-04T02:45:04.036Z,33.50
2018-11-04T02:46:03.971Z,36.90
2018-11-04T02:47:03.975Z,34.90
2018-11-04T02:48:03.849Z,38.30
2018-11-04T02:49:03.785Z,36.00
2018-11-04T02:50:03.730Z,37.10
2018-11-04T02:51:03.647Z,37.70
2018-11-04T02:52:03.589Z,36.30
2018-11-04T02:53:03.539Z,37.40
2018-11-04T02:54:03.470Z,33.70
2018-11-04T02:55:03.399Z,36.90
2018-11-04T02:56:03.335Z,36.50
2018-11-04T02:57:03.273Z,37.50
2018-11-04T02:58:03.207Z,37.00
2018-11-04T02:59:03.156Z,35.30
2018-11-04T03:00:03.079Z,36.00
2018-11-04T03:01:03.038Z,36.80
2018-11-04T03:02:03.037Z,37.30
2018-11-04T03:03:02.915Z,36.70
2018-11-04T03:04:02.846Z,35.00
2018-11-04T03:05:02.768Z,35.90
2018-11-04T03:06:02.695Z,35.60
2018-11-04T03:07:02.632Z,36.50
2018-11-04T03:08:02.564Z,37.20
2018-11-04T03:09:02.536Z,38.50
2018-11-04T03:10:02.456Z,35.10
2018-11-04T03:11:02.377Z,35.20
2018-11-04T03:12:02.322Z,37.90
2018-11-04T03:13:02.250Z,36.90
2018-11-04T03:14:02.210Z,36.00
2018-11-04T03:15:02.152Z,39.00
2018-11-04T03:16:02.075Z,36.10
2018-11-04T03:17:01.997Z,35.70
2018-11-04T03:18:01.981Z,37.30
2018-11-04T03:19:01.890Z,37.20
2018-11-04T03:20:01.815Z,37.60
2018-11-04T03:21:01.745Z,39.50
2018-11-04T03:22:01.694Z,36.90
2018-11-04T03:23:01.634Z,38.80
2018-11-04T03:24:01.555Z,37.40
2018-11-04T03:25:01.518Z,35.40
2018-11-04T03:26:01.429Z,38.50
2018-11-04T03:27:01.365Z,36.60
2018-11-04T03:28:01.303Z,37.00
2018-11-04T03:29:01.269Z,34.90
2018-11-04T03:30:01.174Z,35.80
2018-11-04T03:31:01.119Z,37.80
2018-11-04T03:32:01.059Z,36.20
2018-11-04T03:33:00.982Z,37.80
2018-11-04T03:34:00.941Z,36.50
2018-11-04T03:35:00.863Z,35.30
2018-11-04T03:36:00.789Z,36.80
2018-11-04T03:37:00.730Z,35.70
2018-11-04T03:38:00.676Z,39.30
2018-11-04T03:39:00.602Z,38.50
2018-11-04T03:40:00.540Z,40.50
2018-11-04T03:41:00.502Z,36.90
2018-11-04T03:42:00.419Z,36.10
2018-11-04T03:43:00.347Z,36.50
2018-11-04T03:44:00.298Z,37.10
2018-11-04T03:45:00.223Z,38.60
2018-11-04T03:46:00.158Z,37.80
2018-11-04T03:47:00.109Z,40.30
2018-11-04T03:48:00.040Z,37.40
2018-11-04T03:48:59.963Z,35.50
2018-11-04T03:49:59.936Z,38.50
2018-11-04T03:50:59.848Z,35.20
2018-11-04T03:51:59.772Z,35.40
2018-11-04T03:52:59.713Z,35.30
2018-11-04T03:53:59.666Z,36.90
2018-11-04T03:54:59.588Z,35.80
2018-11-04T03:55:59.526Z,33.80
2018-11-04T03:56:59.457Z,40.40
2018-11-04T03:57:59.393Z,36.90
2018-11-04T03:58:59.330Z,36.40
2018-11-04T03:59:59.292Z,36.50
2018-11-04T04:00:59.203Z,38.70
2018-11-04T04:01:59.144Z,34.70
2018-11-04T04:02:59.081Z,35.40
2018-11-04T04:03:59.021Z,34.60
2018-11-04T04:04:58.951Z,34.30
2018-11-04T04:05:58.890Z,34.90
2018-11-04T04:06:58.830Z,38.50
2018-11-04T04:07:58.760Z,35.30
2018-11-04T04:08:58.698Z,35.10
2018-11-04T04:09:58.649Z,34.20
2018-11-04T04:10:58.577Z,34.00
2018-11-04T04:11:58.502Z,32.90
2018-11-04T04:12:58.438Z,32.40
2018-11-04T04:13:58.372Z,33.90
2018-11-04T04:14:58.313Z,34.40
2018-11-04T04:15:58.247Z,36.50
2018-11-04T04:16:58.183Z,31.60
2018-11-04T04:17:58.130Z,32.50
2018-11-04T04:18:58.063Z,33.50
2018-11-04T04:19:58.028Z,34.10
2018-11-04T04:20:57.934Z,31.50
2018-11-04T04:21:57.871Z,32.20
2018-11-04T04:22:57.836Z,31.50
2018-11-04T04:23:57.754Z,31.70
2018-11-04T04:24:57.679Z,30.10
2018-11-04T04:25:57.635Z,31.40
2018-11-04T04:26:57.547Z,33.20
2018-11-04T04:27:57.487Z,31.70
2018-11-04T04:28:57.425Z,31.50
2018-11-04T04:29:57.377Z,31.50
2018-11-04T04:30:57.300Z,28.50
2018-11-04T04:31:57.238Z,30.90
2018-11-04T04:32:57.181Z,30.10
2018-11-04T04:33:57.107Z,32.10
2018-11-04T04:34:57.048Z,31.80
2018-11-04T04:35:56.992Z,30.40
2018-11-04T04:36:56.915Z,30.60
2018-11-04T04:37:56.858Z,27.80
2018-11-04T04:38:56.800Z,26.60
2018-11-04T04:39:56.726Z,28.60
2018-11-04T04:40:56.661Z,27.00
2018-11-04T04:41:56.632Z,28.50
2018-11-04T04:42:56.540Z,27.00
2018-11-04T04:43:56.473Z,28.70
2018-11-04T04:44:56.414Z,28.50
2018-11-04T04:45:56.344Z,27.50
2018-11-04T04:46:56.283Z,28.90
2018-11-04T04:47:56.233Z,28.50
2018-11-04T04:48:56.163Z,29.30
2018-11-04T04:49:56.089Z,28.90
2018-11-04T04:50:56.036Z,28.80
2018-11-04T04:51:55.963Z,28.90
2018-11-04T04:52:55.896Z,29.30
2018-11-04T04:53:55.840Z,29.20
2018-11-04T04:54:55.774Z,28.80
2018-11-04T04:55:55.708Z,27.20
2018-11-04T04:56:55.646Z,26.40
2018-11-04T04:57:55.584Z,28.40
2018-11-04T04:58:55.525Z,26.40
2018-11-04T04:59:55.455Z,27.80
2018-11-04T05:00:55.439Z,27.60
2018-11-04T05:01:55.330Z,26.60
2018-11-04T05:02:55.269Z,29.10
2018-11-04T05:03:55.204Z,28.30
2018-11-04T05:04:55.148Z,24.40
2018-11-04T05:05:55.090Z,26.00
2018-11-04T05:06:55.020Z,26.40
2018-11-04T05:07:54.964Z,28.30
2018-11-04T05:08:54.884Z,29.20
2018-11-04T05:09:54.820Z,28.30
2018-11-04T05:10:54.759Z,26.00
2018-11-04T05:11:54.692Z,28.20
2018-11-04T05:12:54.635Z,27.20
2018-11-04T05:13:54.568Z,30.80
2018-11-04T05:14:54.511Z,28.60
2018-11-04T05:15:54.442Z,28.90
2018-11-04T05:16:54.377Z,27.20
2018-11-04T05:17:54.313Z,31.90
2018-11-04T05:18:54.254Z,30.20
2018-11-04T05:19:54.190Z,28.60
2018-11-04T05:20:54.151Z,32.60
2018-11-04T05:21:54.057Z,30.20
2018-11-04T05:22:54.018Z,27.50
2018-11-04T05:23:53.945Z,29.60
2018-11-04T05:24:53.879Z,29.90
2018-11-04T05:25:53.808Z,29.80
2018-11-04T05:26:53.751Z,28.40
2018-11-04T05:27:53.690Z,30.00
2018-11-04T05:28:53.639Z,28.20
2018-11-04T05:29:53.553Z,28.70
2018-11-04T05:30:53.495Z,26.40
2018-11-04T05:31:53.430Z,28.70
2018-11-04T05:32:53.360Z,29.90
2018-11-04T05:33:53.321Z,27.90
2018-11-04T05:34:53.241Z,28.80
2018-11-04T05:35:53.171Z,27.60
2018-11-04T05:36:53.109Z,29.20
2018-11-04T05:37:53.039Z,26.90
2018-11-04T05:38:52.980Z,32.10
2018-11-04T05:39:52.919Z,26.50
2018-11-04T05:40:52.850Z,28.60
2018-11-04T05:41:52.789Z,27.20
2018-11-04T05:42:52.738Z,28.20
2018-11-04T05:43:52.662Z,27.90
2018-11-04T05:44:52.598Z,26.60
2018-11-04T05:45:52.536Z,29.80
2018-11-04T05:46:52.489Z,30.60
2018-11-04T05:47:52.407Z,30.80
2018-11-04T05:48:52.342Z,28.50
2018-11-04T05:49:52.281Z,30.60
2018-11-04T05:50:52.233Z,30.80
2018-11-04T05:51:52.167Z,32.40
2018-11-04T05:52:52.097Z,33.00
2018-11-04T05:53:52.025Z,33.00
2018-11-04T05:54:51.963Z,31.10
2018-11-04T05:55:51.926Z,32.20
2018-11-04T05:56:51.835Z,30.40
2018-11-04T05:57:51.768Z,35.20
2018-11-04T05:58:51.709Z,32.30
2018-11-04T05:59:51.659Z,31.90
2018-11-04T06:00:51.582Z,31.70
2018-11-04T06:01:51.518Z,32.30
2018-11-04T06:02:51.458Z,33.50
2018-11-04T06:03:51.417Z,36.50
2018-11-04T06:04:51.335Z,33.90
2018-11-04T06:05:51.265Z,32.60
2018-11-04T06:06:51.195Z,33.30
2018-11-04T06:07:51.135Z,29.40
2018-11-04T06:08:51.095Z,30.60
2018-11-04T06:09:51.013Z,30.30
2018-11-04T06:10:50.946Z,33.70
2018-11-04T06:11:50.911Z,29.60
2018-11-04T06:12:50.818Z,31.80
2018-11-04T06:13:50.755Z,33.20
2018-11-04T06:14:50.690Z,32.20
2018-11-04T06:15:50.648Z,31.90
2018-11-04T06:16:50.564Z,33.90
2018-11-04T06:17:50.538Z,30.90
2018-11-04T06:18:50.471Z,31.70
2018-11-04T06:19:50.377Z,31.80
2018-11-04T06:20:50.311Z,30.80
2018-11-04T06:21:50.270Z,31.50
2018-11-04T06:22:50.180Z,30.40
2018-11-04T06:23:50.119Z,31.80
2018-11-04T06:24:50.055Z,30.50
2018-11-04T06:25:49.988Z,29.90
2018-11-04T06:26:49.927Z,31.30
2018-11-04T06:27:49.864Z,33.70
2018-11-04T06:28:49.803Z,30.60
2018-11-04T06:29:49.731Z,32.50
2018-11-04T06:30:49.703Z,30.10
2018-11-04T06:31:49.640Z,31.30
2018-11-04T06:32:49.547Z,35.20
2018-11-04T06:33:49.483Z,29.90
2018-11-04T06:34:49.435Z,29.70
2018-11-04T06:35:49.383Z,32.10
2018-11-04T06:36:49.287Z,31.00
2018-11-04T06:37:49.245Z,32.10
2018-11-04T06:38:49.169Z,32.90
2018-11-04T06:39:49.097Z,35.00
2018-11-04T06:40:49.073Z,32.30
2018-11-04T06:41:48.993Z,34.00
2018-11-04T06:42:48.920Z,32.80
2018-11-04T06:43:48.865Z,36.20
2018-11-04T06:44:48.794Z,32.90
2018-11-04T06:45:48.715Z,33.30
2018-11-04T06:46:48.706Z,31.50
2018-11-04T06:47:48.614Z,32.60
2018-11-04T06:48:48.524Z,35.10
2018-11-04T06:49:48.471Z,33.80
2018-11-04T06:50:48.448Z,33.60
2018-11-04T06:51:48.340Z,32.00
2018-11-04T06:52:48.272Z,32.80
2018-11-04T06:53:48.242Z,31.60
2018-11-04T06:54:48.156Z,32.80
2018-11-04T06:55:48.091Z,31.20
2018-11-04T06:56:48.036Z,33.80
2018-11-04T06:57:47.975Z,29.60
2018-11-04T06:58:47.887Z,29.90
2018-11-04T06:59:47.894Z,29.10
2018-11-04T07:00:47.769Z,31.10
2018-11-04T07:01:47.706Z,31.30
2018-11-04T07:02:47.637Z,32.80
2018-11-04T07:03:47.594Z,34.50
2018-11-04T07:04:47.527Z,29.80
2018-11-04T07:05:47.436Z,30.70
2018-11-04T07:06:47.382Z,30.80
2018-11-04T07:07:47.325Z,31.70
2018-11-04T07:08:47.318Z,34.20
2018-11-04T07:09:47.205Z,31.60
2018-11-04T07:10:47.154Z,33.20
2018-11-04T07:11:47.057Z,31.10
2018-11-04T07:12:46.996Z,30.10
2018-11-04T07:13:46.955Z,31.10
2018-11-04T07:14:46.875Z,31.80
2018-11-04T07:15:46.809Z,30.70
2018-11-04T07:16:46.765Z,31.90
2018-11-04T07:17:46.695Z,31.70
2018-11-04T07:18:46.627Z,31.60
2018-11-04T07:19:46.560Z,31.50
2018-11-04T07:20:46.482Z,33.00
2018-11-04T07:21:46.428Z,30.30
2018-11-04T07:22:46.377Z,30.70
2018-11-04T07:23:46.299Z,33.30
2018-11-04T07:24:46.228Z,31.70
2018-11-04T07:25:46.306Z,32.70
2018-11-04T07:26:46.127Z,30.80
2018-11-04T07:27:46.039Z,29.50
2018-11-04T07:28:45.979Z,31.80
2018-11-04T07:29:45.915Z,32.10
2018-11-04T07:30:45.855Z,34.10
2018-11-04T07:31:45.804Z,30.20
2018-11-04T07:32:45.750Z,30.80
2018-11-04T07:33:45.666Z,32.60
2018-11-04T07:34:45.603Z,30.90
2018-11-04T07:35:45.548Z,31.10
2018-11-04T07:36:45.474Z,31.50
2018-11-04T07:37:45.401Z,32.60
2018-11-04T07:38:45.342Z,32.70
2018-11-04T07:39:45.297Z,32.00
2018-11-04T07:40:45.211Z,34.40
2018-11-04T07:41:45.154Z,37.30
2018-11-04T07:42:45.087Z,35.80
2018-11-04T07:43:45.024Z,34.90
2018-11-04T07:44:44.961Z,35.00
2018-11-04T07:45:44.904Z,32.50
2018-11-04T07:46:44.834Z,33.20
2018-11-04T07:47:44.775Z,33.80
2018-11-04T07:48:44.719Z,33.80
2018-11-04T07:49:44.651Z,35.00
2018-11-04T07:50:44.670Z,33.50
2018-11-04T07:51:44.525Z,37.40
2018-11-04T07:52:44.473Z,30.80
2018-11-04T07:53:44.385Z,32.90
2018-11-04T07:54:44.355Z,35.50
2018-11-04T07:55:44.283Z,35.50
2018-11-04T07:56:44.250Z,33.80
2018-11-04T07:57:44.134Z,33.40
2018-11-04T07:58:44.070Z,34.50
2018-11-04T07:59:44.010Z,32.10
2018-11-04T08:00:44.002Z,34.30
2018-11-04T08:01:43.887Z,32.00
2018-11-04T08:02:43.829Z,30.40
2018-11-04T08:03:43.754Z,33.90
2018-11-04T08:04:43.705Z,33.00
2018-11-04T08:05:43.645Z,30.50
2018-11-04T08:06:43.558Z,32.50
2018-11-04T08:07:43.497Z,33.30
2018-11-04T08:08:43.441Z,32.90
2018-11-04T08:09:43.367Z,31.60
2018-11-04T08:10:43.307Z,34.60
2018-11-04T08:11:43.245Z,35.10
2018-11-04T08:12:43.180Z,31.30
2018-11-04T08:13:43.276Z,32.30
2018-11-04T08:14:43.054Z,33.80
2018-11-04T08:15:43.012Z,34.70
2018-11-04T08:16:42.933Z,34.60
2018-11-04T08:17:42.872Z,33.00
2018-11-04T08:18:42.816Z,32.30
2018-11-04T08:19:42.733Z,33.00
2018-11-04T08:20:42.686Z,28.80
2018-11-04T08:21:42.606Z,31.20
2018-11-04T08:22:42.546Z,33.40
2018-11-04T08:23:42.483Z,33.40
2018-11-04T08:24:42.435Z,30.60
2018-11-04T08:25:42.355Z,32.50
2018-11-04T08:26:42.291Z,30.90
2018-11-04T08:27:42.259Z,31.30
2018-11-04T08:28:42.165Z,31.60
2018-11-04T08:29:42.106Z,32.10
2018-11-04T08:30:42.037Z,34.30
2018-11-04T08:31:41.981Z,32.30
2018-11-04T08:32:41.918Z,33.20
2018-11-04T08:33:41.888Z,33.90
2018-11-04T08:34:41.791Z,33.90
2018-11-04T08:35:41.725Z,33.20
2018-11-04T08:36:41.668Z,30.70
2018-11-04T08:37:41.612Z,30.90
2018-11-04T08:38:41.528Z,31.50
2018-11-04T08:39:41.492Z,35.90
2018-11-04T08:40:41.406Z,35.60
2018-11-04T08:41:41.344Z,32.30
2018-11-04T08:42:41.279Z,32.80
2018-11-04T08:43:41.236Z,34.10
2018-11-04T08:44:41.155Z,34.50
2018-11-04T08:45:41.136Z,34.00
2018-11-04T08:46:41.043Z,33.80
2018-11-04T08:47:40.972Z,32.90
2018-11-04T08:48:40.906Z,32.40
2018-11-04T08:49:40.872Z,34.40
2018-11-04T08:50:40.778Z,35.50
2018-11-04T08:51:40.707Z,32.30
2018-11-04T08:52:40.785Z,32.30
2018-11-04T08:53:40.577Z,30.70
2018-11-04T08:54:40.515Z,33.50
2018-11-04T08:55:40.502Z,30.40
2018-11-04T08:56:40.387Z,32.70
2018-11-04T08:57:40.321Z,34.00
2018-11-04T08:58:40.270Z,33.20
2018-11-04T08:59:40.235Z,35.50
2018-11-04T09:00:40.137Z,31.40
2018-11-04T09:01:40.077Z,36.20
2018-11-04T09:02:40.021Z,34.70
2018-11-04T09:03:39.964Z,35.50
2018-11-04T09:04:39.889Z,34.80
2018-11-04T09:05:39.817Z,36.10
2018-11-04T09:06:39.839Z,33.60
2018-11-04T09:07:39.689Z,32.80
2018-11-04T09:08:39.630Z,32.80
2018-11-04T09:09:39.564Z,34.40
2018-11-04T09:10:39.503Z,33.00
2018-11-04T09:11:39.436Z,38.60
2018-11-04T09:12:39.372Z,32.70
2018-11-04T09:13:39.309Z,33.00
2018-11-04T09:14:39.248Z,32.20
2018-11-04T09:15:39.186Z,30.50
2018-11-04T09:16:39.119Z,29.90
2018-11-04T09:17:39.056Z,28.70
2018-11-04T09:18:38.994Z,32.50
2018-11-04T09:19:38.937Z,30.00
2018-11-04T09:20:38.863Z,30.60
2018-11-04T09:21:38.856Z,30.90
2018-11-04T09:22:38.826Z,30.90
2018-11-04T09:23:38.734Z,32.00
2018-11-04T09:24:38.617Z,31.60
2018-11-04T09:25:38.550Z,29.30
2018-11-04T09:26:38.485Z,31.00
2018-11-04T09:27:38.423Z,30.20
2018-11-04T09:28:38.358Z,30.50
2018-11-04T09:29:38.295Z,33.00
2018-11-04T09:30:38.233Z,32.30
2018-11-04T09:31:38.169Z,30.30
2018-11-04T09:32:38.107Z,30.90
2018-11-04T09:33:38.044Z,34.20
2018-11-04T09:34:38.002Z,34.60
2018-11-04T09:35:38.045Z,31.50
2018-11-04T09:36:37.960Z,29.40
2018-11-04T09:37:37.787Z,30.50
2018-11-04T09:38:37.737Z,29.50
2018-11-04T09:39:37.664Z,28.80
2018-11-04T09:40:37.601Z,31.00
2018-11-04T09:41:37.536Z,30.90
2018-11-04T09:42:37.474Z,32.10
2018-11-04T09:43:37.411Z,31.00
2018-11-04T09:44:37.346Z,32.40
2018-11-04T09:45:37.283Z,35.30
2018-11-04T09:46:37.218Z,33.00
2018-11-04T09:47:37.161Z,31.10
2018-11-04T09:48:37.094Z,29.40
2018-11-04T09:49:37.034Z,31.80
2018-11-04T09:50:36.966Z,32.50
2018-11-04T09:51:36.903Z,33.30
2018-11-04T09:52:36.839Z,33.40
2018-11-04T09:53:36.777Z,30.40
2018-11-04T09:54:36.712Z,27.70
2018-11-04T09:55:36.648Z,27.00
2018-11-04T09:56:36.682Z,30.40
2018-11-04T09:57:36.522Z,25.60
2018-11-04T09:58:36.459Z,28.80
2018-11-04T09:59:36.395Z,29.20
2018-11-04T10:00:36.333Z,28.90
2018-11-04T10:01:36.267Z,27.50
2018-11-04T10:02:36.205Z,29.70
2018-11-04T10:03:36.141Z,27.00
2018-11-04T10:04:36.085Z,25.70
2018-11-04T10:05:36.015Z,29.00
2018-11-04T10:06:35.951Z,25.50
2018-11-04T10:07:35.888Z,30.40
2018-11-04T10:08:35.826Z,26.00
2018-11-04T10:09:35.759Z,28.10
2018-11-04T10:10:35.698Z,27.60
2018-11-04T10:11:35.634Z,26.50
2018-11-04T10:12:35.570Z,27.40
2018-11-04T10:13:35.506Z,25.50
2018-11-04T10:14:35.445Z,27.30
2018-11-04T10:15:35.381Z,25.70
2018-11-04T10:16:35.317Z,28.40
2018-11-04T10:17:35.252Z,27.10
2018-11-04T10:18:35.191Z,26.80
2018-11-04T10:19:35.222Z,25.00
2018-11-04T10:20:35.379Z,27.80
2018-11-04T10:21:34.998Z,27.60
2018-11-04T10:22:34.937Z,28.30
2018-11-04T10:23:34.887Z,28.40
2018-11-04T10:24:34.809Z,26.10
2018-11-04T10:25:34.746Z,27.80
2018-11-04T10:26:34.685Z,26.50
2018-11-04T10:27:34.620Z,26.30
2018-11-04T10:28:34.554Z,28.20
2018-11-04T10:29:34.493Z,27.50
2018-11-04T10:30:34.429Z,26.60
2018-11-04T10:31:34.375Z,25.80
2018-11-04T10:32:34.307Z,27.90
2018-11-04T10:33:34.237Z,26.80
2018-11-04T10:34:34.174Z,27.80
2018-11-04T10:35:34.111Z,28.20
2018-11-04T10:36:34.057Z,27.00
2018-11-04T10:37:33.983Z,26.20
2018-11-04T10:38:33.920Z,27.40
2018-11-04T10:39:33.859Z,28.20
2018-11-04T10:40:33.793Z,27.80
2018-11-04T10:41:33.731Z,29.10
2018-11-04T10:42:33.666Z,28.90
2018-11-04T10:43:33.605Z,26.60
2018-11-04T10:44:33.541Z,26.30
2018-11-04T10:45:33.473Z,27.60
2018-11-04T10:46:33.414Z,28.00
2018-11-04T10:47:33.350Z,29.80
2018-11-04T10:48:33.286Z,27.10
2018-11-04T10:49:33.288Z,26.40
2018-11-04T10:50:33.155Z,28.60
2018-11-04T10:51:33.096Z,29.50
2018-11-04T10:52:33.032Z,25.40
2018-11-04T10:53:32.969Z,25.90
2018-11-04T10:54:32.905Z,28.10
2018-11-04T10:55:32.878Z,26.30
2018-11-04T10:56:32.779Z,27.20
2018-11-04T10:57:32.716Z,26.00
2018-11-04T10:58:32.652Z,23.60
2018-11-04T10:59:32.592Z,27.50
2018-11-04T11:00:32.524Z,27.30
2018-11-04T11:01:32.464Z,25.20
2018-11-04T11:02:32.398Z,26.40
2018-11-04T11:03:32.334Z,27.00
2018-11-04T11:04:32.388Z,28.20
2018-11-04T11:05:32.220Z,24.50
2018-11-04T11:06:32.142Z,25.50
2018-11-04T11:07:32.081Z,27.30
2018-11-04T11:08:32.017Z,25.80
2018-11-04T11:09:31.955Z,28.00
2018-11-04T11:10:31.890Z,26.90
2018-11-04T11:11:31.827Z,28.10
2018-11-04T11:12:31.764Z,28.30
2018-11-04T11:13:31.701Z,28.10
2018-11-04T11:14:31.637Z,27.50
2018-11-04T11:15:31.573Z,26.50
2018-11-04T11:16:31.508Z,28.40
2018-11-04T11:17:31.448Z,27.40
2018-11-04T11:18:31.384Z,26.10
2018-11-04T11:19:31.320Z,29.20
2018-11-04T11:20:31.255Z,26.60
2018-11-04T11:21:31.193Z,27.10
2018-11-04T11:22:31.213Z,26.60
2018-11-04T11:23:31.071Z,24.30
2018-11-04T11:24:31.003Z,25.60
2018-11-04T11:25:30.939Z,25.30
2018-11-04T11:26:30.879Z,25.20
2018-11-04T11:27:30.815Z,25.50
2018-11-04T11:28:30.750Z,24.50
2018-11-04T11:29:30.687Z,23.30
2018-11-04T11:30:30.631Z,23.10
2018-11-04T11:31:30.560Z,25.60
2018-11-04T11:32:30.567Z,23.90
2018-11-04T11:33:30.447Z,24.30
2018-11-04T11:34:30.375Z,25.20
2018-11-04T11:35:30.308Z,22.60
2018-11-04T11:36:30.244Z,22.30
2018-11-04T11:37:30.246Z,24.50
2018-11-04T11:38:30.180Z,24.30
2018-11-04T11:39:30.060Z,25.00
2018-11-04T11:40:30.001Z,22.30
2018-11-04T11:41:29.932Z,22.70
2018-11-04T11:42:29.882Z,20.90
2018-11-04T11:43:29.800Z,20.10
2018-11-04T11:44:29.737Z,24.00
2018-11-04T11:45:29.675Z,22.90
2018-11-04T11:46:29.613Z,23.20
2018-11-04T11:47:29.561Z,21.30
2018-11-04T11:48:29.481Z,26.60
2018-11-04T11:49:29.430Z,24.30
2018-11-04T11:50:29.362Z,24.90
2018-11-04T11:51:29.322Z,25.10
2018-11-04T11:52:29.253Z,24.20
2018-11-04T11:53:29.168Z,23.90
2018-11-04T11:54:29.103Z,21.80
2018-11-04T11:55:29.045Z,23.50
2018-11-04T11:56:28.976Z,25.70
2018-11-04T11:57:28.915Z,24.10
2018-11-04T11:58:28.851Z,24.10
2018-11-04T11:59:28.900Z,21.90
2018-11-04T12:00:28.723Z,24.10
2018-11-04T12:01:28.671Z,24.10
2018-11-04T12:02:28.599Z,25.20
2018-11-04T12:03:28.531Z,24.20
2018-11-04T12:04:28.471Z,22.00
2018-11-04T12:05:28.408Z,21.70
2018-11-04T12:06:28.344Z,21.50
2018-11-04T12:07:28.278Z,22.50
2018-11-04T12:08:28.217Z,22.90
2018-11-04T12:09:28.153Z,24.20
2018-11-04T12:10:28.092Z,19.80
2018-11-04T12:11:28.029Z,22.70
2018-11-04T12:12:27.961Z,21.90
2018-11-04T12:13:27.902Z,20.90
2018-11-04T12:14:27.839Z,22.00
2018-11-04T12:15:27.773Z,20.80
2018-11-04T12:16:27.709Z,22.40
2018-11-04T12:17:27.647Z,22.20
2018-11-04T12:18:27.583Z,19.60
2018-11-04T12:19:27.519Z,21.30
2018-11-04T12:20:27.457Z,22.30
2018-11-04T12:21:27.393Z,20.60
2018-11-04T12:22:27.353Z,23.50
2018-11-04T12:23:27.285Z,20.80
2018-11-04T12:24:27.204Z,20.40
2018-11-04T12:25:27.138Z,22.00
2018-11-04T12:26:27.076Z,22.40
2018-11-04T12:27:27.010Z,23.00
2018-11-04T12:28:26.947Z,24.00
2018-11-04T12:29:26.884Z,21.80
2018-11-04T12:30:26.825Z,21.60
2018-11-04T12:31:26.757Z,20.60
2018-11-04T12:32:26.694Z,22.30
2018-11-04T12:33:26.628Z,24.50
2018-11-04T12:34:26.569Z,20.70
2018-11-04T12:35:26.633Z,21.30
2018-11-04T12:36:26.441Z,18.60
2018-11-04T12:37:26.382Z,19.70
2018-11-04T12:38:26.318Z,19.10
2018-11-04T12:39:26.256Z,20.00
2018-11-04T12:40:26.194Z,21.00
2018-11-04T12:41:26.128Z,18.30
2018-11-04T12:42:26.072Z,22.50
2018-11-04T12:43:25.999Z,20.30
2018-11-04T12:44:25.939Z,20.80
2018-11-04T12:45:25.880Z,18.20
2018-11-04T12:46:25.810Z,22.30
2018-11-04T12:47:25.746Z,20.50
2018-11-04T12:48:25.682Z,20.40
2018-11-04T12:49:25.620Z,20.20
2018-11-04T12:50:25.562Z,18.90
2018-11-04T12:51:25.497Z,19.50